CheckWX is a tool to help pilots better visualize weather data.  It is not intended as a substitute for an official pre-flight weather briefing.

00:56:41 UTC

ENCN METAR
Kristiansand Airport
Kjevik, Norway
Current

37 mins ago

ENCN 190020Z AUTO 06003KT 9999 OVC130/// 12/12 Q1012
Observed
Jun-19 @ 00:20 UTC
Wind
  • 060° at 3 KTS
Visibility
10,000+ meters
Flight Rules
VFR
Cloud Levels
  • Overcast at 13,000' AGL
Temperature
12°C / 54°F
Dewpoint
12°C / 54°F
Humidity
100%
Altimeter
29.88" Hg
Pressure
1011.92 hPa
Previous

1 hour ago

ENCN 182350Z AUTO 06003KT 9999 OVC120/// 12/12 Q1012
Observed
Jun-18 @ 23:50 UTC
Wind
  • 060° at 3 KTS
Visibility
10,000+ meters
Flight Rules
VFR
Cloud Levels
  • Overcast at 12,000' AGL
Temperature
12°C / 54°F
Dewpoint
12°C / 54°F
Humidity
100%
Altimeter
29.88" Hg
Pressure
1011.92 hPa
Previous

2 hours ago

ENCN 182320Z AUTO VRB02KT 9999 OVC120/// 13/13 Q1012
Observed
Jun-18 @ 23:20 UTC
Wind
  • Variable at 2 KTS
Visibility
10,000+ meters
Flight Rules
VFR
Cloud Levels
  • Overcast at 12,000' AGL
Temperature
13°C / 55°F
Dewpoint
13°C / 55°F
Humidity
100%
Altimeter
29.88" Hg
Pressure
1011.92 hPa